createdAt,value
2022-08-26T07:02:46.951Z,27.40
2022-08-26T07:05:19.053Z,27.70
2022-08-26T07:07:52.340Z,28.10
2022-08-26T07:10:23.903Z,27.80
2022-08-26T07:12:55.419Z,27.10
2022-08-26T07:15:31.051Z,26.90
2022-08-26T07:18:00.075Z,26.40
2022-08-26T07:20:31.960Z,25.90
2022-08-26T07:23:03.466Z,25.30
2022-08-26T07:25:34.991Z,25.10
2022-08-26T07:28:06.761Z,24.70
2022-08-26T07:30:41.630Z,24.60
2022-08-26T07:33:12.937Z,24.90
2022-08-26T07:35:45.753Z,25.00
2022-08-26T07:38:17.273Z,25.30
2022-08-26T07:40:48.769Z,25.60
2022-08-26T07:43:20.428Z,25.60
2022-08-26T07:45:51.964Z,25.40
2022-08-26T07:48:23.388Z,25.10
2022-08-26T07:50:54.950Z,25.10
2022-08-26T07:53:27.037Z,25.10
2022-08-26T07:55:59.645Z,25.10
2022-08-26T07:58:30.997Z,25.20
2022-08-26T08:01:02.552Z,25.20
2022-08-26T08:03:35.674Z,25.40
2022-08-26T08:06:07.947Z,25.50
2022-08-26T08:08:41.515Z,25.40
2022-08-26T08:11:13.249Z,25.20
2022-08-26T08:13:44.779Z,25.20
2022-08-26T08:16:17.465Z,25.50
2022-08-26T08:18:49.475Z,25.50
2022-08-26T08:21:23.897Z,25.60
2022-08-26T08:23:56.494Z,26.00
2022-08-26T08:26:28.418Z,26.40
2022-08-26T08:29:00.220Z,26.60
2022-08-26T08:34:07.533Z,26.30
2022-08-26T08:36:38.993Z,26.20
2022-08-26T08:39:10.488Z,26.10
2022-08-26T08:42:07.365Z,26.10
2022-08-26T08:44:43.290Z,26.00
2022-08-26T08:47:18.103Z,25.80
2022-08-26T08:49:49.537Z,25.70
2022-08-26T08:52:25.596Z,25.80
2022-08-26T08:54:58.710Z,25.80
2022-08-26T08:57:34.663Z,25.80
2022-08-26T09:00:11.881Z,26.00
2022-08-26T09:02:46.817Z,26.40
2022-08-26T09:05:23.214Z,26.50
2022-08-26T09:07:58.904Z,26.70
2022-08-26T09:10:35.961Z,26.90
2022-08-26T09:13:16.393Z,27.10
2022-08-26T09:15:49.944Z,27.40
2022-08-26T09:18:28.564Z,27.50
2022-08-26T09:21:03.812Z,27.40
2022-08-26T09:23:38.456Z,27.60
2022-08-26T09:26:18.671Z,27.80
2022-08-26T09:28:53.218Z,28.00
2022-08-26T09:31:28.654Z,27.90
2022-08-26T09:34:11.507Z,27.80
2022-08-26T09:36:45.541Z,28.00
2022-08-26T09:42:25.423Z,28.20
2022-08-26T09:44:59.526Z,28.30
2022-08-26T09:47:33.952Z,28.40
2022-08-26T09:50:12.353Z,28.30
2022-08-26T09:52:43.056Z,28.10
2022-08-26T09:55:17.889Z,27.90
2022-08-26T09:57:52.237Z,27.80
2022-08-26T10:00:34.584Z,27.80
2022-08-26T10:03:10.831Z,27.80
2022-08-26T10:05:45.621Z,27.90
2022-08-26T10:08:26.603Z,27.90
2022-08-26T10:11:01.040Z,27.90
2022-08-26T10:13:38.111Z,27.80
2022-08-26T10:16:16.226Z,27.90
2022-08-26T10:18:56.843Z,27.90
2022-08-26T10:21:29.603Z,28.10
2022-08-26T10:24:03.215Z,28.20
2022-08-26T10:26:38.397Z,28.30
2022-08-26T10:29:15.112Z,28.20
2022-08-26T10:31:51.389Z,28.30
2022-08-26T10:34:23.238Z,28.20
2022-08-26T10:37:14.991Z,28.10
2022-08-26T10:39:34.044Z,28.00
2022-08-26T10:42:08.376Z,28.00
2022-08-26T10:44:44.400Z,28.00
2022-08-26T10:47:20.703Z,28.00
2022-08-26T10:49:57.518Z,28.20
2022-08-26T10:52:31.081Z,28.40
2022-08-26T10:55:05.831Z,28.40
2022-08-26T10:57:43.283Z,28.40
2022-08-26T11:00:35.914Z,28.50
2022-08-26T11:03:21.886Z,28.50
2022-08-26T11:05:45.418Z,28.70
2022-08-26T11:08:31.129Z,28.70
2022-08-26T11:11:03.545Z,28.90
2022-08-26T11:14:11.695Z,28.90
2022-08-26T11:16:46.137Z,28.90
2022-08-26T11:20:01.603Z,29.00
2022-08-26T11:22:47.688Z,29.00
2022-08-26T11:25:16.315Z,29.00
2022-08-26T11:28:00.588Z,29.00
2022-08-26T11:30:44.532Z,29.10
2022-08-26T11:33:52.676Z,29.10
2022-08-26T11:36:59.694Z,29.10
2022-08-26T11:39:38.444Z,29.00
2022-08-26T11:42:21.838Z,29.00
2022-08-26T11:44:57.942Z,29.10
2022-08-26T11:47:31.887Z,29.10
2022-08-26T11:50:13.151Z,29.10
2022-08-26T11:52:52.661Z,29.00
2022-08-26T11:55:24.635Z,28.90
2022-08-26T11:58:00.804Z,28.90
2022-08-26T12:00:36.184Z,28.90
2022-08-26T12:03:09.692Z,29.10
2022-08-26T12:05:44.892Z,29.10
2022-08-26T12:08:20.291Z,29.10
2022-08-26T12:11:03.056Z,29.00
2022-08-26T12:13:34.565Z,28.90
2022-08-26T12:16:07.861Z,28.90
2022-08-26T12:18:40.841Z,28.80
2022-08-26T12:21:16.669Z,28.60
2022-08-26T12:23:52.259Z,28.60
2022-08-26T12:26:28.177Z,28.70
2022-08-26T12:29:02.361Z,28.70
2022-08-26T12:31:37.391Z,28.60
2022-08-26T12:34:17.561Z,28.50
2022-08-26T12:36:48.143Z,28.60
2022-08-26T12:39:29.717Z,28.60
2022-08-26T12:42:02.588Z,28.60
2022-08-26T12:44:37.240Z,28.60
2022-08-26T12:47:15.196Z,28.70
2022-08-26T12:49:48.840Z,28.70
2022-08-26T12:52:30.425Z,28.70
2022-08-26T12:55:05.044Z,28.70
2022-08-26T12:57:38.048Z,28.80
2022-08-26T13:00:34.961Z,28.70
2022-08-26T13:03:08.121Z,28.70
2022-08-26T13:05:40.151Z,28.70
2022-08-26T13:08:14.071Z,28.80
2022-08-26T13:10:48.275Z,28.90
2022-08-26T13:13:19.676Z,29.00
2022-08-26T13:15:52.485Z,29.00
2022-08-26T13:18:24.055Z,29.10
2022-08-26T13:20:55.515Z,29.10
2022-08-26T13:23:27.830Z,29.00
2022-08-26T13:25:59.944Z,29.00
2022-08-26T13:28:31.475Z,29.10
2022-08-26T13:31:03.046Z,29.00
2022-08-26T13:33:36.296Z,29.10
2022-08-26T13:36:09.226Z,29.00
2022-08-26T13:38:40.812Z,29.00
2022-08-26T13:41:12.391Z,29.00
2022-08-26T13:43:45.722Z,29.10
2022-08-26T13:46:17.303Z,29.10
2022-08-26T13:48:49.991Z,29.10
2022-08-26T13:51:22.599Z,29.20
2022-08-26T13:53:54.377Z,29.30
2022-08-26T13:56:27.499Z,29.40
2022-08-26T13:59:01.229Z,29.40
2022-08-26T14:01:33.840Z,29.50
2022-08-26T14:04:05.711Z,29.60
2022-08-26T14:06:37.419Z,29.60
2022-08-26T14:09:08.961Z,29.70
2022-08-26T14:11:54.080Z,29.80
2022-08-26T14:14:14.960Z,29.80
2022-08-26T14:16:58.788Z,29.80
2022-08-26T14:19:19.946Z,29.80
2022-08-26T14:21:53.015Z,29.80
2022-08-26T14:24:24.868Z,29.80
2022-08-26T14:26:56.288Z,29.90
2022-08-26T14:29:28.218Z,29.90
2022-08-26T14:32:01.550Z,29.90
2022-08-26T14:34:33.031Z,29.90
2022-08-26T14:37:07.642Z,29.90
2022-08-26T14:39:38.060Z,29.90
2022-08-26T14:42:10.242Z,30.00
2022-08-26T14:44:45.126Z,29.90
2022-08-26T14:47:16.588Z,30.10
2022-08-26T14:49:48.163Z,30.20
2022-08-26T14:52:19.982Z,30.20
2022-08-26T14:54:51.331Z,30.20
2022-08-26T14:57:24.373Z,30.20
2022-08-26T14:59:55.841Z,30.10
2022-08-26T15:02:33.328Z,30.10
2022-08-26T15:05:01.615Z,30.10
2022-08-26T15:07:34.335Z,30.10
2022-08-26T15:10:08.460Z,30.00
2022-08-26T15:12:41.049Z,29.90
2022-08-26T15:15:16.676Z,30.00
2022-08-26T15:17:48.412Z,30.10
2022-08-26T15:20:21.469Z,30.10
2022-08-26T15:22:53.717Z,30.00
2022-08-26T15:25:25.622Z,29.90
2022-08-26T15:27:57.067Z,29.80
2022-08-26T15:30:28.599Z,29.70
2022-08-26T15:33:00.407Z,29.60
2022-08-26T15:35:32.958Z,29.40
2022-08-26T15:38:04.908Z,29.20
2022-08-26T15:40:36.642Z,29.10
2022-08-26T15:43:25.443Z,29.00
2022-08-26T15:45:42.174Z,28.90
2022-08-26T15:48:13.566Z,28.80
2022-08-26T15:50:51.183Z,28.80
2022-08-26T15:53:23.647Z,28.70
2022-08-26T15:55:56.999Z,28.60
2022-08-26T15:58:30.544Z,28.50
2022-08-26T16:01:02.626Z,28.50
2022-08-26T16:03:34.372Z,28.40
2022-08-26T16:06:06.891Z,28.40
2022-08-26T16:08:38.500Z,28.20
2022-08-26T16:11:10.248Z,28.20
2022-08-26T16:13:41.785Z,28.00
2022-08-26T16:16:13.353Z,27.80
2022-08-26T16:18:45.114Z,27.50
2022-08-26T16:21:18.364Z,27.30
2022-08-26T16:23:50.355Z,27.00
2022-08-26T16:26:25.211Z,26.80
2022-08-26T16:28:57.197Z,26.70
2022-08-26T16:31:28.929Z,26.50
2022-08-26T16:34:00.988Z,26.50
2022-08-26T16:36:32.804Z,26.40
2022-08-26T16:39:05.990Z,26.40
2022-08-26T16:41:37.958Z,26.30
2022-08-26T16:44:11.465Z,26.20
2022-08-26T16:46:43.078Z,26.10
2022-08-26T16:49:14.569Z,25.80
2022-08-26T16:51:46.817Z,25.50
2022-08-26T16:54:18.363Z,24.90
2022-08-26T16:56:49.805Z,24.50
2022-08-26T16:59:21.433Z,24.10
2022-08-26T17:01:52.959Z,23.80
2022-08-26T17:04:24.436Z,23.50
2022-08-26T17:06:56.779Z,23.00
2022-08-26T17:09:28.796Z,22.10
2022-08-26T17:12:00.282Z,21.40
2022-08-26T17:14:33.318Z,20.90
2022-08-26T17:17:05.607Z,20.60
2022-08-26T17:19:40.960Z,20.10
2022-08-26T17:22:11.719Z,19.50
2022-08-26T17:24:43.674Z,19.00
2022-08-26T17:27:15.191Z,18.70
2022-08-26T17:29:46.676Z,18.50
2022-08-26T17:32:18.035Z,18.40
2022-08-26T17:34:50.922Z,18.30
2022-08-26T17:37:22.473Z,18.30
2022-08-26T17:39:53.994Z,18.30
2022-08-26T17:42:31.511Z,18.30
2022-08-26T17:44:58.467Z,18.20
2022-08-26T17:47:29.998Z,18.30
2022-08-26T17:50:01.888Z,18.20
2022-08-26T17:52:33.847Z,18.20
2022-08-26T17:55:07.054Z,18.30
2022-08-26T17:57:40.927Z,18.60
2022-08-26T18:00:17.179Z,18.60
2022-08-26T18:02:48.470Z,18.50
2022-08-26T18:05:20.878Z,18.40
2022-08-26T18:07:52.409Z,18.20
2022-08-26T18:10:25.683Z,18.00
2022-08-26T18:12:56.919Z,17.90
2022-08-26T18:15:28.674Z,17.90
2022-08-26T18:18:00.340Z,17.80
2022-08-26T18:20:31.824Z,17.80
2022-08-26T18:23:03.222Z,17.70
2022-08-26T18:25:35.182Z,17.80
2022-08-26T18:28:06.842Z,17.80
2022-08-26T18:30:38.768Z,17.80
2022-08-26T18:33:10.660Z,17.70
2022-08-26T18:35:43.784Z,17.70
2022-08-26T18:38:15.489Z,17.70
2022-08-26T18:40:47.501Z,17.60
2022-08-26T18:43:19.168Z,17.50
2022-08-26T18:45:50.752Z,17.50
2022-08-26T18:48:23.086Z,17.50
2022-08-26T18:50:55.242Z,17.60
2022-08-26T18:53:28.346Z,17.60
2022-08-26T18:55:59.772Z,17.70
2022-08-26T18:58:31.168Z,17.70
2022-08-26T19:01:02.663Z,17.70
2022-08-26T19:03:34.282Z,17.70
2022-08-26T19:06:09.249Z,17.70
2022-08-26T19:08:42.650Z,17.70
2022-08-26T19:11:14.451Z,17.70
2022-08-26T19:13:46.516Z,17.70
2022-08-26T19:16:19.308Z,17.60
2022-08-26T19:18:51.462Z,17.60
2022-08-26T19:21:24.216Z,17.70
2022-08-26T19:23:58.835Z,17.70
2022-08-26T19:26:31.378Z,17.70
2022-08-26T19:29:03.244Z,17.70
2022-08-26T19:31:34.620Z,17.70
2022-08-26T19:34:07.139Z,17.80
2022-08-26T19:36:38.773Z,17.80
2022-08-26T19:39:12.538Z,17.70
2022-08-26T19:41:44.644Z,17.50
2022-08-26T19:44:19.901Z,17.40
2022-08-26T19:46:51.407Z,17.30
2022-08-26T19:49:23.670Z,17.40
2022-08-26T19:51:55.047Z,17.40
2022-08-26T19:54:27.350Z,17.30
2022-08-26T19:57:01.909Z,17.40
2022-08-26T19:59:33.685Z,17.40
2022-08-26T20:02:10.039Z,17.40
2022-08-26T20:04:40.144Z,17.40
2022-08-26T20:07:16.513Z,17.40
2022-08-26T20:09:46.211Z,17.40
2022-08-26T20:12:18.610Z,17.40
2022-08-26T20:14:49.998Z,17.40
2022-08-26T20:17:22.208Z,17.40
2022-08-26T20:20:16.074Z,17.40
2022-08-26T20:22:44.837Z,17.40
2022-08-26T20:25:16.794Z,17.40
2022-08-26T20:27:48.296Z,17.40
2022-08-26T20:30:20.196Z,17.30
2022-08-26T20:32:52.407Z,17.30
2022-08-26T20:35:24.754Z,17.30
2022-08-26T20:37:56.423Z,17.20
2022-08-26T20:40:29.372Z,17.20
2022-08-26T20:43:00.862Z,17.20
2022-08-26T20:45:32.722Z,17.20
2022-08-26T20:48:04.897Z,17.30
2022-08-26T20:50:38.087Z,17.30
2022-08-26T20:53:09.701Z,17.30
2022-08-26T20:55:41.170Z,17.30
2022-08-26T20:58:12.704Z,17.30
2022-08-26T21:00:44.145Z,17.30
2022-08-26T21:03:15.822Z,17.30
2022-08-26T21:05:47.304Z,17.30
2022-08-26T21:08:18.792Z,17.30
2022-08-26T21:10:51.123Z,17.30
2022-08-26T21:13:23.740Z,17.20
2022-08-26T21:15:58.236Z,17.20
2022-08-26T21:18:29.689Z,17.20
2022-08-26T21:21:02.664Z,17.20
2022-08-26T21:23:34.430Z,17.20
2022-08-26T21:26:08.671Z,17.20
2022-08-26T21:28:42.348Z,17.20
2022-08-26T21:31:16.281Z,17.30
2022-08-26T21:33:48.125Z,17.30
2022-08-26T21:36:20.392Z,17.30
2022-08-26T21:38:51.944Z,17.40
2022-08-26T21:41:24.196Z,17.40
2022-08-26T21:43:59.069Z,17.40
2022-08-26T21:46:34.267Z,17.40
2022-08-26T21:49:07.947Z,17.40
2022-08-26T21:51:41.644Z,17.40
2022-08-26T21:54:14.314Z,17.30
2022-08-26T21:56:47.688Z,17.40
2022-08-26T21:59:20.507Z,17.40
2022-08-26T22:01:52.383Z,17.50
2022-08-26T22:04:24.160Z,17.40
2022-08-26T22:06:57.781Z,17.40
2022-08-26T22:09:31.603Z,17.40
2022-08-26T22:12:03.287Z,17.50
2022-08-26T22:14:35.294Z,17.50
2022-08-26T22:17:07.003Z,17.50
2022-08-26T22:19:41.338Z,17.50
2022-08-26T22:22:11.867Z,17.50
2022-08-26T22:24:43.930Z,17.60
2022-08-26T22:27:16.036Z,17.50
2022-08-26T22:29:47.971Z,17.50
2022-08-26T22:32:19.486Z,17.50
2022-08-26T22:34:50.914Z,17.50
2022-08-26T22:37:22.393Z,17.50
2022-08-26T22:39:54.417Z,17.50
2022-08-26T22:42:25.765Z,17.60
2022-08-26T22:44:57.112Z,17.60
2022-08-26T22:47:28.663Z,17.60
2022-08-26T22:50:01.330Z,17.60
2022-08-26T22:52:32.810Z,17.70
2022-08-26T22:55:04.702Z,17.70
2022-08-26T22:57:36.308Z,17.70
2022-08-26T23:00:14.529Z,17.70
2022-08-26T23:02:46.310Z,17.70
2022-08-26T23:05:17.724Z,17.80
2022-08-26T23:07:49.127Z,17.70
2022-08-26T23:10:20.621Z,17.70
2022-08-26T23:12:53.342Z,17.70
2022-08-26T23:15:25.028Z,17.70
2022-08-26T23:18:03.138Z,17.70
2022-08-26T23:20:30.699Z,17.70
2022-08-26T23:23:02.689Z,17.80
2022-08-26T23:25:35.284Z,17.80
2022-08-26T23:28:07.056Z,17.80
2022-08-26T23:30:38.520Z,17.80
2022-08-26T23:33:09.885Z,17.80
2022-08-26T23:35:41.457Z,17.80
2022-08-26T23:38:14.174Z,17.70
2022-08-26T23:40:47.364Z,17.70
2022-08-26T23:43:18.749Z,17.60
2022-08-26T23:45:50.195Z,17.60
2022-08-26T23:48:21.833Z,17.50
2022-08-26T23:51:10.865Z,17.50
2022-08-26T23:53:43.711Z,17.50
2022-08-26T23:56:17.667Z,17.40
2022-08-26T23:58:49.138Z,17.30
